Time;durP1;ratioP1;P1;durP2;ratioP2;P2;SDS_P1;SDS_P2;PMS_P1;PMS_P2;Temp;Humidity;BMP_temperature;BMP_pressure;BME280_temperature;BME280_humidity;BME280_pressure;Samples;Min_cycle;Max_cycle;Signal;HPM_P1;HPM_P2
2023/08/14 00:01:06;;;;;;;4.43;2.70;;;22.10;77.80;;;24.76;49.63;101497.38;5016998;28;20286;-63
2023/08/14 00:03:33;;;;;;;5.33;3.57;;;22.10;77.80;;;24.72;49.62;101501.63;5031140;28;20745;-64
2023/08/14 00:06:00;;;;;;;3.70;2.73;;;22.00;78.10;;;24.71;49.95;101505.38;5036696;28;20186;-63
2023/08/14 00:08:27;;;;;;;3.07;2.73;;;22.00;78.30;;;24.70;50.16;101506.44;5036785;28;20233;-65
2023/08/14 00:10:56;;;;;;;5.10;2.83;;;22.00;78.40;;;24.67;50.29;101498.88;5036977;28;20234;-63
2023/08/14 00:13:23;;;;;;;4.33;2.87;;;21.90;78.40;;;24.63;50.41;101505.78;5036770;28;20244;-63
2023/08/14 00:15:50;;;;;;;6.30;3.33;;;21.90;78.90;;;24.59;50.38;101496.59;5036703;28;20213;-63
2023/08/14 00:18:18;;;;;;;4.27;3.10;;;21.90;79.20;;;24.52;50.63;101495.94;5037092;28;20189;-62
2023/08/14 00:20:45;;;;;;;6.00;3.33;;;21.80;79.20;;;24.46;51.31;101486.19;5035565;28;20599;-63
2023/08/14 00:23:12;;;;;;;3.80;2.90;;;21.80;79.30;;;24.42;50.68;101496.63;5036833;28;20199;-62
2023/08/14 00:25:39;;;;;;;6.83;2.93;;;21.80;79.30;;;24.40;51.09;101493.38;5036494;28;20213;-60
2023/08/14 00:28:08;;;;;;;4.13;2.77;;;21.70;79.80;;;24.43;51.09;101497.44;5036814;28;20202;-63
2023/08/14 00:30:35;;;;;;;3.80;2.83;;;21.70;80.10;;;24.45;51.18;101489.94;5036091;28;20213;-65
2023/08/14 00:33:02;;;;;;;5.30;2.90;;;21.70;80.40;;;24.49;51.14;101485.66;5036549;28;20194;-63
2023/08/14 00:35:29;;;;;;;5.27;2.97;;;21.70;80.30;;;24.48;51.42;101484.88;5022972;28;20694;-61
2023/08/14 00:37:56;;;;;;;5.00;2.97;;;21.70;80.20;;;24.47;50.83;101499.38;5023582;28;20206;-62
2023/08/14 00:40:24;;;;;;;4.20;2.40;;;21.70;80.30;;;24.49;51.62;101499.13;5016266;28;20623;-62
2023/08/14 00:42:51;;;;;;;3.80;2.97;;;21.70;80.70;;;24.46;51.60;101486.97;5016532;28;20615;-61
2023/08/14 00:45:19;;;;;;;5.77;3.10;;;21.70;80.60;;;24.47;51.17;101498.56;5028120;28;20202;-63
2023/08/14 00:47:49;;;;;;;7.23;2.80;;;21.70;80.70;;;24.42;51.29;101490.41;5036221;28;20236;-61
2023/08/14 00:50:18;;;;;;;3.17;2.87;;;21.60;80.60;;;24.39;51.83;101497.09;5035358;28;20218;-63
2023/08/14 00:52:51;;;;;;;5.47;2.63;;;21.60;80.80;;;24.37;51.24;101490.34;5036188;28;20501;-62
2023/08/14 00:55:22;;;;;;;5.87;3.20;;;21.60;80.90;;;24.32;51.98;101495.66;5035582;28;20563;-63
2023/08/14 00:57:50;;;;;;;7.23;3.23;;;21.50;81.20;;;24.32;51.58;101490.28;5036248;28;20225;-63
2023/08/14 01:00:19;;;;;;;6.60;3.23;;;21.50;81.40;;;24.30;51.81;101484.31;5035950;28;20203;-63
2023/08/14 01:02:48;;;;;;;5.60;2.80;;;21.50;81.50;;;24.28;52.36;101494.50;5036384;28;20214;-63
2023/08/14 01:05:15;;;;;;;4.20;2.83;;;21.40;81.60;;;24.25;52.06;101490.44;5035895;28;20186;-63
2023/08/14 01:07:42;;;;;;;6.93;3.23;;;21.40;81.70;;;24.24;51.77;101488.81;5036247;28;20182;-62
2023/08/14 01:10:11;;;;;;;3.83;2.97;;;21.40;81.70;;;24.21;52.33;101484.75;5034149;28;20704;-61
2023/08/14 01:12:49;;;;;;;6.53;2.80;;;21.40;81.80;;;24.16;52.36;101486.53;5035801;28;20598;-62
2023/08/14 01:15:30;;;;;;;7.47;3.10;;;21.40;82.10;;;24.15;52.09;101496.47;5035781;28;20241;-61
2023/08/14 01:18:02;;;;;;;4.20;3.07;;;21.40;82.20;;;24.14;52.18;101504.81;5035644;28;20218;-63
2023/08/14 01:20:33;;;;;;;4.83;2.83;;;21.30;82.20;;;24.13;52.57;101493.22;5035152;28;20293;-63
2023/08/14 01:23:14;;;;;;;6.60;2.97;;;21.30;82.20;;;24.09;52.23;101497.47;5035514;28;20225;-63
2023/08/14 01:25:43;;;;;;;3.70;2.37;;;21.30;82.10;;;24.11;52.15;101500.72;5035304;28;20262;-63
2023/08/14 01:28:12;;;;;;;4.23;2.87;;;21.30;82.70;;;24.11;52.37;101506.09;5035933;28;20230;-62
2023/08/14 01:30:39;;;;;;;3.77;2.60;;;21.30;82.50;;;24.10;52.10;101503.69;5034964;28;20218;-63
2023/08/14 01:33:07;;;;;;;5.03;2.90;;;21.30;82.40;;;24.08;52.21;101506.59;5035597;28;20205;-63
2023/08/14 01:35:41;;;;;;;3.17;2.87;;;21.30;82.40;;;24.08;52.81;101500.41;5035380;28;20210;-63
2023/08/14 01:38:21;;;;;;;8.20;3.57;;;21.20;82.70;;;24.03;52.70;101506.47;5020718;28;20190;-62
2023/08/14 01:40:58;;;;;;;4.53;2.57;;;21.20;82.50;;;24.00;52.22;101506.97;5017132;28;20215;-62
2023/08/14 01:43:31;;;;;;;6.93;3.20;;;21.20;82.60;;;24.01;52.52;101510.50;5035261;28;20201;-62
2023/08/14 01:45:58;;;;;;;3.83;3.10;;;21.20;82.70;;;24.00;52.76;101498.91;5034815;28;20703;-64
2023/08/14 01:48:28;;;;;;;4.60;2.47;;;21.20;82.70;;;23.98;52.70;101495.66;5033509;28;20262;-63
2023/08/14 01:50:57;;;;;;;3.60;2.70;;;21.20;83.30;;;23.97;52.81;101504.78;5034781;28;20269;-61
2023/08/14 01:53:24;;;;;;;5.80;3.27;;;21.20;82.90;;;23.94;52.17;101499.88;5034879;28;20256;-62
2023/08/14 01:55:52;;;;;;;5.10;3.10;;;21.20;83.40;;;23.92;52.71;101496.63;5034740;28;20246;-63
2023/08/14 01:58:21;;;;;;;4.30;3.47;;;21.20;82.70;;;23.86;52.40;101492.22;5035197;28;20310;-62
2023/08/14 02:00:48;;;;;;;4.03;2.93;;;21.10;82.40;;;23.82;53.04;101488.38;5034702;28;20234;-63
2023/08/14 02:03:15;;;;;;;4.67;3.03;;;21.10;82.60;;;23.81;53.18;101480.56;5035027;28;20194;-63
2023/08/14 02:05:42;;;;;;;5.80;3.10;;;21.00;82.80;;;23.78;52.92;101479.16;5034585;28;20218;-63
2023/08/14 02:08:09;;;;;;;5.67;3.10;;;21.00;82.90;;;23.76;52.98;101486.66;5034045;28;20273;-63
2023/08/14 02:10:36;;;;;;;4.60;3.00;;;21.00;83.00;;;23.74;52.68;101475.34;5034077;28;20218;-62
2023/08/14 02:13:05;;;;;;;3.93;2.60;;;21.00;83.10;;;23.73;53.38;101486.31;5034534;28;20190;-64
2023/08/14 02:15:32;;;;;;;7.37;3.37;;;21.00;83.70;;;23.72;53.48;101477.47;5034475;28;20300;-60
2023/08/14 02:17:59;;;;;;;3.63;2.77;;;20.90;83.70;;;23.72;53.41;101480.16;5034227;28;20281;-63
2023/08/14 02:20:26;;;;;;;3.93;2.80;;;20.90;83.80;;;23.71;53.10;101483.88;5033919;28;20625;-62
2023/08/14 02:22:53;;;;;;;5.73;3.47;;;20.90;83.80;;;23.70;53.50;101476.06;5034199;28;20222;-62
2023/08/14 02:25:20;;;;;;;4.97;3.07;;;20.90;83.80;;;23.68;53.49;101468.22;5033893;28;20310;-62
2023/08/14 02:27:47;;;;;;;6.03;3.70;;;20.90;84.00;;;23.66;53.45;101469.53;5034172;28;20234;-62
2023/08/14 02:30:16;;;;;;;5.43;3.50;;;20.80;84.00;;;23.64;53.63;101471.66;5033035;28;20215;-61
2023/08/14 02:32:43;;;;;;;5.43;3.23;;;20.80;84.20;;;23.61;53.61;101480.19;5034309;28;20281;-64
2023/08/14 02:35:10;;;;;;;4.70;3.43;;;20.80;84.20;;;23.58;53.60;101476.16;5034030;28;20183;-63
2023/08/14 02:37:38;;;;;;;5.70;3.40;;;20.70;84.60;;;23.58;53.85;101481.53;5033507;28;20206;-62
2023/08/14 02:40:07;;;;;;;4.13;3.40;;;20.70;84.60;;;23.56;53.96;101476.38;5033470;28;20288;-63
2023/08/14 02:42:34;;;;;;;5.80;3.33;;;20.70;84.80;;;23.55;54.00;101468.56;5033811;28;20228;-63
2023/08/14 02:45:01;;;;;;;7.20;3.90;;;20.70;84.90;;;23.55;54.16;101469.38;5034093;28;20703;-62
2023/08/14 02:47:31;;;;;;;4.73;2.80;;;20.70;84.80;;;23.54;53.98;101461.53;5034275;28;20640;-63
2023/08/14 02:49:58;;;;;;;5.17;2.90;;;20.70;85.10;;;23.54;53.74;101458.84;5033830;28;20765;-63
2023/08/14 02:52:26;;;;;;;5.17;3.10;;;20.70;84.90;;;23.54;54.04;101456.16;5034032;28;20193;-64
2023/08/14 02:54:53;;;;;;;4.03;3.63;;;20.70;84.90;;;23.50;54.00;101463.09;5033909;28;20274;-63
2023/08/14 02:57:20;;;;;;;5.37;3.77;;;20.70;84.60;;;23.41;54.07;101461.84;5033377;28;20210;-63
2023/08/14 02:59:47;;;;;;;5.60;3.23;;;20.70;84.40;;;23.33;54.24;101451.44;5033352;28;20237;-63
2023/08/14 03:02:14;;;;;;;4.87;3.63;;;20.60;84.50;;;23.29;54.23;101469.13;5033614;28;20193;-62
2023/08/14 03:04:42;;;;;;;5.03;3.73;;;20.60;84.90;;;23.18;54.74;101472.66;5033721;28;20197;-63
2023/08/14 03:07:09;;;;;;;7.03;4.03;;;20.50;85.10;;;23.06;55.08;101469.22;5033535;28;20190;-63
2023/08/14 03:09:39;;;;;;;8.70;4.00;;;20.50;85.70;;;22.92;55.61;101464.09;5032900;28;20234;-63
2023/08/14 03:12:07;;;;;;;5.60;3.90;;;20.40;86.20;;;22.82;55.69;101463.09;5033256;28;20667;-64
2023/08/14 03:14:34;;;;;;;3.83;3.30;;;20.20;86.10;;;22.73;56.19;101459.13;5033436;28;20190;-63
2023/08/14 03:17:01;;;;;;;5.30;3.50;;;20.20;86.50;;;22.67;56.14;101454.72;5033266;28;20238;-61
2023/08/14 03:19:28;;;;;;;3.03;2.83;;;20.10;86.90;;;22.69;56.18;101455.28;5033126;28;20218;-63
2023/08/14 03:21:56;;;;;;;7.40;3.73;;;20.10;87.50;;;22.73;56.50;101454.56;5032790;28;20256;-62
2023/08/14 03:24:23;;;;;;;5.83;4.10;;;20.10;87.70;;;22.77;56.21;101455.72;5048544;28;20195;-61
2023/08/14 03:26:50;;;;;;;5.20;3.67;;;20.10;87.50;;;22.80;55.96;101454.44;5033233;28;20522;-61
2023/08/14 03:29:17;;;;;;;3.83;3.50;;;20.10;87.30;;;22.77;55.97;101461.09;5032843;28;20198;-62
2023/08/14 03:31:44;;;;;;;8.57;4.17;;;20.10;87.30;;;22.78;56.30;101457.38;5033179;28;20191;-62
2023/08/14 03:34:11;;;;;;;4.70;3.50;;;20.10;87.70;;;22.80;56.29;101460.63;5036117;28;20206;-63
2023/08/14 03:36:39;;;;;;;6.13;3.63;;;20.00;87.70;;;22.82;56.25;101463.88;5037174;28;20209;-62
2023/08/14 03:39:07;;;;;;;5.13;3.90;;;20.10;88.80;;;22.85;56.08;101458.03;5036765;28;20290;-63
2023/08/14 03:41:34;;;;;;;4.50;3.53;;;20.10;87.70;;;22.82;55.92;101455.81;5037398;28;20264;-65
2023/08/14 03:44:02;;;;;;;6.07;3.67;;;20.00;87.30;;;22.79;55.95;101459.00;5037131;28;20186;-61
2023/08/14 03:46:29;;;;;;;5.13;3.10;;;20.00;87.30;;;22.79;55.77;101461.69;5037332;28;20202;-64
2023/08/14 03:48:56;;;;;;;6.57;4.70;;;20.00;87.50;;;22.79;56.05;101461.69;5036453;28;20220;-62
2023/08/14 03:51:23;;;;;;;4.63;3.53;;;20.00;87.40;;;22.79;55.85;101459.00;5036780;28;20242;-64
2023/08/14 03:53:50;;;;;;;5.87;3.83;;;20.00;87.40;;;22.80;55.91;101465.16;5037078;28;20218;-62
2023/08/14 03:56:19;;;;;;;3.83;3.43;;;20.00;87.40;;;22.81;56.16;101456.91;5036889;28;20327;-65
2023/08/14 03:58:46;;;;;;;4.07;3.73;;;20.00;87.90;;;22.83;56.09;101454.78;5036329;28;20529;-62
2023/08/14 04:01:13;;;;;;;3.90;3.47;;;20.10;88.00;;;22.86;56.17;101450.81;5036789;28;20214;-62
2023/08/14 04:03:40;;;;;;;11.10;4.53;;;20.00;87.80;;;22.85;56.00;101452.69;5036650;28;20225;-61
2023/08/14 04:06:07;;;;;;;5.37;3.87;;;20.10;87.90;;;22.85;55.93;101451.84;5036379;28;20187;-62
2023/08/14 04:08:34;;;;;;;7.07;3.80;;;20.00;87.70;;;22.86;55.96;101448.94;5036793;28;20206;-61
2023/08/14 04:11:01;;;;;;;5.73;3.40;;;20.00;87.90;;;22.87;56.13;101447.06;5036503;28;20214;-62
2023/08/14 04:13:29;;;;;;;7.50;3.80;;;20.00;88.10;;;22.88;56.19;101438.78;5036943;28;20190;-62
2023/08/14 04:15:59;;;;;;;3.97;3.57;;;20.00;88.20;;;22.89;56.21;101448.44;5036755;28;20633;-61
2023/08/14 04:18:27;;;;;;;5.67;3.47;;;20.00;88.20;;;22.89;56.41;101451.13;5035853;28;20594;-64
2023/08/14 04:20:54;;;;;;;5.07;3.97;;;20.00;88.00;;;22.89;56.02;101451.13;5036215;28;20211;-63
2023/08/14 04:23:24;;;;;;;5.73;3.37;;;20.00;88.00;;;22.88;55.83;101452.22;5036436;28;20202;-64
2023/08/14 04:25:51;;;;;;;5.70;3.50;;;20.00;87.90;;;22.89;56.10;101453.03;5036597;28;20191;-60
2023/08/14 04:28:18;;;;;;;6.17;3.87;;;20.00;88.00;;;22.87;55.97;101450.56;5036328;28;20194;-63
2023/08/14 04:30:47;;;;;;;6.23;3.47;;;20.00;88.10;;;22.87;56.05;101455.94;5035716;28;20571;-62
2023/08/14 04:33:14;;;;;;;8.30;4.00;;;20.00;88.20;;;22.87;56.24;101455.94;5036352;28;20240;-61
2023/08/14 04:35:41;;;;;;;6.37;4.00;;;20.00;88.40;;;22.88;56.46;101451.38;5036442;28;20222;-62
2023/08/14 04:38:10;;;;;;;5.90;3.67;;;20.00;88.50;;;22.88;56.12;101452.22;5035639;28;20301;-63
2023/08/14 04:40:37;;;;;;;7.57;4.33;;;20.00;88.50;;;22.88;56.10;101454.91;5036145;28;20240;-63
2023/08/14 04:43:04;;;;;;;4.37;3.47;;;20.00;88.50;;;22.87;56.33;101450.56;5036436;28;20674;-63
2023/08/14 04:45:31;;;;;;;5.43;3.67;;;20.00;88.50;;;22.85;56.18;101455.38;5035327;28;20190;-63
2023/08/14 04:47:59;;;;;;;4.83;3.27;;;20.00;88.50;;;22.86;56.32;101442.75;5035691;28;20218;-63
2023/08/14 04:50:26;;;;;;;4.77;3.80;;;20.00;88.50;;;22.87;55.98;101455.13;5034413;28;20567;-63
2023/08/14 04:52:53;;;;;;;6.07;3.53;;;20.00;88.60;;;22.87;56.59;101461.31;5035885;28;20565;-64
2023/08/14 04:55:23;;;;;;;5.33;3.87;;;20.00;88.70;;;22.89;56.43;101453.81;5035745;28;20724;-63
2023/08/14 04:57:50;;;;;;;3.67;3.20;;;20.00;88.80;;;22.92;56.37;101451.75;5036086;28;20222;-63
2023/08/14 05:00:18;;;;;;;5.77;4.67;;;20.00;89.00;;;22.95;56.44;101460.13;5035117;28;20219;-64
2023/08/14 05:02:45;;;;;;;6.90;4.07;;;20.00;89.00;;;22.97;56.34;101444.59;5035825;28;20273;-63
2023/08/14 05:05:14;;;;;;;8.00;4.50;;;20.10;89.10;;;23.02;56.33;101446.53;5035267;28;20194;-63
2023/08/14 05:07:41;;;;;;;7.00;3.77;;;20.10;89.10;;;23.05;56.33;101446.91;5035572;28;20705;-63
2023/08/14 05:10:08;;;;;;;6.20;3.83;;;20.10;89.10;;;23.11;56.34;101439.72;5034838;28;20272;-64
2023/08/14 05:12:35;;;;;;;5.77;4.17;;;20.20;89.20;;;23.15;56.19;101435.53;5035058;28;20190;-63
2023/08/14 05:15:04;;;;;;;6.07;3.90;;;20.20;88.90;;;23.20;56.17;101430.25;5035126;28;20260;-63
2023/08/14 05:17:31;;;;;;;6.67;3.97;;;20.20;89.00;;;23.26;56.03;101442.72;5035607;28;20210;-65
2023/08/14 05:19:58;;;;;;;7.73;4.23;;;20.30;89.10;;;23.32;56.03;101441.78;5034897;28;20219;-63
2023/08/14 05:22:26;;;;;;;5.30;4.27;;;20.30;89.00;;;23.40;56.08;101444.09;5035772;28;20195;-63
2023/08/14 05:24:53;;;;;;;7.53;4.73;;;20.40;89.00;;;23.45;55.86;101444.19;5035466;28;20678;-63
2023/08/14 05:27:20;;;;;;;4.43;3.57;;;20.40;88.90;;;23.52;55.49;101444.84;5034871;28;20285;-63
2023/08/14 05:29:47;;;;;;;5.83;4.00;;;20.50;88.80;;;23.55;55.59;101452.44;5034393;28;20236;-63
2023/08/14 05:32:14;;;;;;;6.00;3.30;;;20.60;88.70;;;23.59;55.35;101448.19;5034999;28;20269;-61
2023/08/14 05:34:42;;;;;;;6.90;4.07;;;20.60;88.30;;;23.62;55.53;101458.47;5034805;28;20187;-64
2023/08/14 05:37:09;;;;;;;6.27;3.93;;;20.70;88.20;;;23.62;55.61;101453.09;5020610;28;20206;-64
2023/08/14 05:39:37;;;;;;;7.50;4.00;;;20.70;87.90;;;23.62;54.91;101453.09;5034163;28;20206;-64
2023/08/14 05:42:04;;;;;;;4.60;3.90;;;20.70;87.80;;;23.62;55.36;101463.84;5033989;28;20206;-64
2023/08/14 05:44:31;;;;;;;5.20;3.27;;;20.80;87.90;;;23.64;55.32;101461.72;5034336;28;20282;-63
2023/08/14 05:46:58;;;;;;;4.33;3.73;;;20.70;87.70;;;23.70;54.83;101468.00;5034634;28;20265;-64
2023/08/14 05:49:26;;;;;;;5.93;4.00;;;20.80;88.00;;;23.75;54.90;101468.88;5034345;28;20215;-62
2023/08/14 05:51:53;;;;;;;4.87;4.17;;;20.80;88.10;;;23.78;55.33;101473.78;5034666;28;20190;-63
2023/08/14 05:54:20;;;;;;;5.80;3.67;;;20.80;88.00;;;23.84;54.76;101462.06;5034229;28;20266;-60
2023/08/14 05:56:50;;;;;;;13.63;6.20;;;20.90;88.10;;;23.90;55.34;101461.09;5013850;28;20227;-63
2023/08/14 05:59:17;;;;;;;4.60;3.50;;;21.00;88.40;;;23.96;54.91;101465.47;5014373;28;20186;-62
2023/08/14 06:01:45;;;;;;;6.40;4.10;;;21.00;88.00;;;24.03;54.91;101459.94;5027920;28;20252;-62
2023/08/14 06:04:13;;;;;;;7.67;4.00;;;21.00;87.70;;;24.06;55.10;101460.28;5034062;28;20312;-61
2023/08/14 06:06:40;;;;;;;4.40;3.53;;;21.10;87.60;;;24.10;54.63;101466.00;5034047;28;20676;-63
2023/08/14 06:09:07;;;;;;;5.13;4.40;;;21.20;87.50;;;24.14;55.04;101476.03;5033579;28;20193;-63
2023/08/14 06:11:34;;;;;;;8.40;4.20;;;21.20;87.30;;;24.20;54.54;101472.34;5034286;28;20217;-61
2023/08/14 06:14:04;;;;;;;5.90;3.73;;;21.30;87.30;;;24.29;54.17;101469.25;5034117;28;20186;-63
2023/08/14 06:16:31;;;;;;;4.90;4.20;;;21.30;87.10;;;24.38;54.15;101467.75;5033994;28;20197;-64
2023/08/14 06:19:01;;;;;;;7.03;4.43;;;21.40;87.00;;;24.40;53.84;101471.00;5033421;28;20226;-63
2023/08/14 06:21:28;;;;;;;7.40;4.90;;;21.50;86.80;;;24.44;53.88;101472.94;5033487;28;20191;-65
2023/08/14 06:23:55;;;;;;;7.37;6.13;;;21.50;86.60;;;24.50;54.02;101471.16;5033748;28;20206;-63
2023/08/14 06:26:22;;;;;;;9.33;5.50;;;21.60;86.70;;;24.59;53.83;101472.34;5033650;28;20236;-63
2023/08/14 06:28:49;;;;;;;6.03;4.13;;;21.60;86.50;;;24.66;53.56;101475.69;5033192;28;20214;-62
2023/08/14 06:31:18;;;;;;;5.40;3.83;;;21.70;86.40;;;24.74;53.42;101467.19;5033871;28;20218;-64
2023/08/14 06:33:46;;;;;;;5.07;4.23;;;21.70;86.30;;;24.83;53.38;101479.16;5033055;28;20563;-63
2023/08/14 06:36:14;;;;;;;7.07;4.40;;;21.80;86.40;;;24.91;53.20;101473.34;5033216;28;20226;-63
2023/08/14 06:38:41;;;;;;;8.30;4.57;;;21.80;86.20;;;25.00;53.35;101471.03;5032567;28;20217;-63
2023/08/14 06:41:09;;;;;;;6.60;4.63;;;21.90;86.10;;;25.05;53.36;101474.59;5033503;28;20256;-62
2023/08/14 06:43:36;;;;;;;8.43;4.63;;;22.00;86.00;;;25.14;52.67;101478.47;5033528;28;20329;-65
2023/08/14 06:46:03;;;;;;;5.87;4.00;;;22.10;85.90;;;25.21;52.44;101476.41;5033243;28;20198;-64
2023/08/14 06:48:32;;;;;;;11.27;4.93;;;22.20;85.70;;;25.30;52.93;101476.75;5032959;28;20567;-62
2023/08/14 06:50:59;;;;;;;4.90;3.70;;;22.20;85.50;;;25.40;52.56;101472.28;5033257;28;20276;-62
2023/08/14 06:53:26;;;;;;;6.83;4.70;;;22.30;85.30;;;25.50;51.96;101472.41;5032895;28;20336;-63
2023/08/14 06:55:55;;;;;;;6.53;4.23;;;22.40;85.00;;;25.59;52.49;101469.25;5033179;28;20194;-63
2023/08/14 06:58:22;;;;;;;5.50;3.90;;;22.50;84.90;;;25.67;51.54;101466.09;5033646;28;20297;-64
2023/08/14 07:00:49;;;;;;;9.10;5.10;;;22.60;84.50;;;25.73;52.04;101465.06;5032367;28;20287;-63
2023/08/14 07:03:17;;;;;;;6.83;5.43;;;22.60;84.30;;;25.81;51.78;101461.91;5033337;28;20643;-63
2023/08/14 07:05:45;;;;;;;5.43;3.93;;;22.70;83.80;;;25.87;51.18;101450.88;5032930;28;20268;-64
2023/08/14 07:08:12;;;;;;;5.13;3.93;;;22.80;83.50;;;25.96;50.88;101462.03;5033200;28;20205;-64
2023/08/14 07:10:39;;;;;;;5.33;3.57;;;22.90;83.20;;;26.00;50.69;101449.63;5032949;28;20214;-63
2023/08/14 07:13:06;;;;;;;6.47;3.67;;;23.00;82.60;;;26.08;50.79;101457.22;5046202;28;20194;-64
2023/08/14 07:15:33;;;;;;;5.00;3.73;;;23.10;82.60;;;26.20;50.22;101455.19;5031554;28;20675;-63
2023/08/14 07:18:01;;;;;;;10.30;7.87;;;23.10;82.50;;;26.32;50.48;101447.69;5032530;28;20637;-64
2023/08/14 07:20:28;;;;;;;6.37;5.77;;;23.20;82.10;;;26.42;49.93;101436.97;5028144;28;20214;-64
2023/08/14 07:22:56;;;;;;;7.70;5.23;;;23.30;82.10;;;26.54;50.05;101434.03;5030824;28;20234;-64
2023/08/14 07:25:24;;;;;;;7.03;4.73;;;23.40;81.80;;;26.65;49.00;101431.13;5031309;28;20284;-65
2023/08/14 07:27:51;;;;;;;5.80;3.97;;;23.50;81.20;;;26.78;49.34;101430.69;5031164;28;20675;-64
2023/08/14 07:30:18;;;;;;;6.00;3.70;;;23.60;81.20;;;26.91;48.81;101434.75;5030523;28;20214;-63
2023/08/14 07:32:45;;;;;;;4.83;3.17;;;23.60;80.50;;;26.96;47.95;101436.69;5030098;28;20615;-63
2023/08/14 07:35:12;;;;;;;4.57;2.90;;;23.70;79.70;;;27.04;48.41;101444.25;5029722;28;20210;-63
2023/08/14 07:37:40;;;;;;;3.37;2.80;;;23.80;79.80;;;27.15;48.30;101445.91;5031108;28;20210;-64
2023/08/14 07:40:10;;;;;;;4.17;2.60;;;23.90;79.40;;;27.24;47.04;101455.16;5031129;28;20269;-62
2023/08/14 07:42:37;;;;;;;6.23;3.30;;;24.00;78.10;;;27.31;46.55;101463.81;5032892;28;20275;-63
2023/08/14 07:45:05;;;;;;;5.30;3.60;;;24.10;77.20;;;27.42;46.48;101463.59;5028791;28;20286;-64
2023/08/14 07:47:32;;;;;;;4.33;3.53;;;24.20;77.20;;;27.52;45.92;101462.78;5032472;28;20210;-62
2023/08/14 07:49:59;;;;;;;6.27;2.90;;;24.30;77.20;;;27.61;45.95;101466.59;5032621;28;20242;-63
2023/08/14 07:52:30;;;;;;;4.17;2.80;;;24.40;76.50;;;27.65;45.57;101475.78;5027159;28;20274;-63
2023/08/14 07:54:57;;;;;;;5.20;3.10;;;24.40;76.20;;;27.67;45.15;101476.31;5013038;28;20183;-63
2023/08/14 07:57:26;;;;;;;4.83;2.03;;;24.50;75.10;;;27.80;44.62;101481.19;5011413;28;20218;-63
2023/08/14 07:59:54;;;;;;;4.97;2.40;;;24.50;74.00;;;28.01;44.20;101480.16;5030256;28;20250;-63
2023/08/14 08:02:21;;;;;;;5.67;2.60;;;24.60;74.40;;;28.16;44.24;101474.72;5032517;28;20190;-63
2023/08/14 08:04:49;;;;;;;4.87;2.30;;;24.70;74.70;;;28.27;43.97;101474.69;5032703;28;20252;-62
2023/08/14 08:07:16;;;;;;;6.97;2.73;;;24.80;74.30;;;28.34;43.75;101475.22;5032646;28;20230;-63
2023/08/14 08:09:44;;;;;;;5.80;2.70;;;24.90;73.70;;;28.44;44.03;101475.19;5032714;28;20218;-63
2023/08/14 08:12:11;;;;;;;6.40;2.53;;;25.00;73.90;;;28.63;43.28;101485.19;5032356;28;20293;-65
2023/08/14 08:14:40;;;;;;;3.63;2.33;;;25.10;73.40;;;28.99;43.05;101472.31;5032420;28;20213;-65
2023/08/14 08:17:08;;;;;;;4.33;2.40;;;25.30;73.60;;;29.29;42.53;101472.16;5032379;28;20270;-64
2023/08/14 08:19:35;;;;;;;5.13;2.67;;;25.50;72.60;;;29.47;42.09;101468.00;5033142;28;20301;-62
2023/08/14 08:22:02;;;;;;;4.03;2.40;;;25.70;72.60;;;29.63;42.40;101461.34;5035983;28;20190;-61
2023/08/14 08:24:29;;;;;;;4.43;2.30;;;25.80;72.00;;;29.69;41.59;101471.06;5036220;28;20198;-63
2023/08/14 08:26:56;;;;;;;9.43;2.70;;;26.00;72.10;;;29.62;41.07;101473.28;5035720;28;20190;-63
2023/08/14 08:29:23;;;;;;;4.57;2.63;;;26.10;70.20;;;29.49;41.65;101472.03;5035670;28;20310;-62
2023/08/14 08:31:52;;;;;;;4.60;3.20;;;26.10;70.00;;;29.40;41.48;101468.31;5036220;28;20274;-63
2023/08/14 08:34:19;;;;;;;4.73;2.80;;;26.10;69.70;;;29.39;42.07;101476.72;5035805;28;20229;-62
2023/08/14 08:36:46;;;;;;;3.47;2.43;;;26.10;70.20;;;29.47;41.65;101479.66;5035217;28;20225;-63
2023/08/14 08:39:13;;;;;;;6.97;4.93;;;26.10;70.30;;;29.49;41.62;101477.47;5035273;28;20284;-62
2023/08/14 08:41:48;;;;;;;5.17;2.90;;;26.10;69.70;;;29.44;41.71;101480.22;5035270;28;20282;-64
2023/08/14 08:44:25;;;;;;;6.30;3.17;;;26.10;69.40;;;29.36;41.05;101472.66;5034393;28;20268;-63
2023/08/14 08:47:02;;;;;;;10.47;5.17;;;26.20;69.10;;;29.31;41.66;101475.41;5035579;28;20666;-63
2023/08/14 08:49:29;;;;;;;7.27;3.23;;;26.20;69.10;;;29.32;41.82;101470.78;5035103;28;20208;-65
2023/08/14 08:51:58;;;;;;;4.60;2.50;;;26.20;69.30;;;29.29;41.34;101476.78;5036008;28;20198;-63
2023/08/14 08:54:27;;;;;;;5.63;2.33;;;26.10;68.80;;;29.23;41.66;101478.72;5036086;28;20229;-62
2023/08/14 08:56:56;;;;;;;3.27;2.30;;;26.10;68.80;;;29.29;41.35;101482.19;5034849;28;20552;-63
2023/08/14 08:59:25;;;;;;;4.67;2.40;;;26.10;69.50;;;29.35;41.37;101475.66;5034931;28;20697;-63
2023/08/14 09:01:54;;;;;;;5.33;3.93;;;26.10;69.60;;;29.42;41.62;101471.53;5035516;28;20248;-63
2023/08/14 09:04:24;;;;;;;13.77;12.17;;;26.10;69.70;;;29.52;41.69;101460.59;5035080;28;20278;-63
2023/08/14 09:06:51;;;;;;;5.60;4.20;;;26.10;69.80;;;29.70;41.43;101456.41;5034625;28;20191;-63
2023/08/14 09:09:20;;;;;;;3.07;2.53;;;26.10;69.70;;;30.01;40.57;101456.97;5034656;28;20265;-63
2023/08/14 09:11:47;;;;;;;4.27;2.43;;;26.20;69.60;;;30.57;39.51;101458.00;5035043;28;20250;-63
2023/08/14 09:14:17;;;;;;;4.43;2.17;;;26.30;68.90;;;31.04;39.21;101453.66;5034673;28;20187;-62
2023/08/14 09:16:44;;;;;;;4.87;2.20;;;26.60;69.10;;;31.33;38.58;101451.59;5035751;28;20612;-62
2023/08/14 09:19:15;;;;;;;7.67;4.07;;;26.80;68.60;;;31.50;38.19;101443.72;5024518;28;20219;-62
2023/08/14 09:21:44;;;;;;;4.03;2.57;;;27.00;68.30;;;31.60;38.58;101450.91;5014935;28;20265;-63
2023/08/14 09:24:16;;;;;;;3.90;2.80;;;27.20;68.10;;;31.76;38.11;101436.75;5014891;28;20202;-62
2023/08/14 09:26:43;;;;;;;9.27;6.77;;;27.30;67.50;;;32.13;37.73;101448.66;5014815;28;20179;-62
2023/08/14 09:29:12;;;;;;;7.13;3.43;;;27.60;67.40;;;32.23;37.79;101443.03;5014511;28;20183;-65
2023/08/14 09:31:45;;;;;;;3.97;2.93;;;27.80;66.70;;;32.23;37.12;101422.03;5015791;28;20196;-63
2023/08/14 09:34:17;;;;;;;5.97;3.63;;;27.90;65.50;;;32.32;36.90;101413.94;5034164;28;20252;-63
2023/08/14 09:36:46;;;;;;;3.10;2.80;;;28.10;64.80;;;32.73;36.98;101412.03;5020256;28;20222;-62
2023/08/14 09:39:16;;;;;;;6.30;2.93;;;28.30;65.40;;;33.51;35.66;101408.03;5034042;28;20260;-63
2023/08/14 09:41:46;;;;;;;6.77;4.27;;;28.50;64.50;;;34.56;34.78;101410.69;5034557;28;20557;-63
2023/08/14 09:44:14;;;;;;;6.43;3.28;;;28.90;64.40;;;35.78;32.80;101411.16;5034264;28;20623;-65
2023/08/14 09:46:42;;;;;;;4.15;3.30;;;29.40;64.00;;;37.00;31.81;101396.50;5034179;28;20186;-63
2023/08/14 09:49:10;;;;;;;4.85;3.05;;;30.00;63.50;;;37.55;29.96;101396.16;5033343;28;20191;-63
2023/08/14 09:51:39;;;;;;;4.18;3.22;;;30.50;60.20;;;37.81;29.92;101405.72;5034715;28;20278;-61
2023/08/14 09:54:09;;;;;;;5.78;3.92;;;31.10;59.30;;;38.34;29.31;101407.53;5034276;28;20247;-64
2023/08/14 09:56:37;;;;;;;5.70;3.83;;;31.50;58.30;;;39.21;28.14;101402.31;5034336;28;20229;-62
2023/08/14 09:59:04;;;;;;;3.80;3.33;;;32.00;57.80;;;40.05;27.53;101403.00;5033187;28;20259;-62
2023/08/14 10:01:31;;;;;;;7.57;3.05;;;32.40;56.30;;;40.24;26.20;101392.00;5033852;28;20277;-65
2023/08/14 10:03:59;;;;;;;5.85;2.95;;;32.90;54.50;;;39.55;26.16;101404.44;5033601;28;20254;-63
2023/08/14 10:06:26;;;;;;;4.55;2.88;;;33.10;52.30;;;38.49;26.58;101414.28;5033499;28;20282;-62
2023/08/14 10:08:57;;;;;;;2.92;2.20;;;33.10;49.50;;;37.42;27.96;101414.56;5033910;28;20278;-62
2023/08/14 10:11:32;;;;;;;4.32;2.90;;;32.90;50.70;;;36.88;29.16;101408.19;5034095;28;20280;-63
2023/08/14 10:14:04;;;;;;;5.45;2.90;;;32.60;50.20;;;37.63;28.30;101403.53;5034230;28;20269;-65
2023/08/14 10:16:39;;;;;;;6.13;3.42;;;32.50;50.70;;;39.16;27.13;101410.81;5033874;28;20563;-63